Terminal Aerodrome Forecast
Issued by NWS

Home | Current Version | Previous Version | Text Only | Print | Product List | Glossary On
Versions: 1 2 3 4 5 6 7 8 9 10 11 12 13 14
000
FTUS46 KPDT 212300
TAFRDM
TAF
KRDM 212325Z 2200/2224 29009KT P6SM -RA OVC050
     FM220300 29006KT P6SM VCSH OVC050
     FM220900 VRB04KT 5SM BR OVC040
     FM221700 32006KT P6SM SCT040 OVC080=

USA.gov is the U.S. government's official web portal to all federal, state and local government web resources and services.